KSEAKRBL

Guest
Details From KSEA - Seattle Tacoma Intl
To KRBL - Red Bluff Muni
Flight Number -
Tags Decoded
Created
Modified
Stats Distance 444 nm / 822 km
Max Altitude 0 ft / 0 m
Waypoints 3
Social Downloads 0
Likes 0
Share VATSIM

Download

Looking for another format? Having issues loading an existing format? Contact us
Advertisement - Login to hide

Notes

Decoded

Route

SEA LMT RBL

ID Type Via Altitude Latitude Longitude Leg Dist Tot Dist Heading (true) Name
O SEA VOR - 0 ft / 0 m 47.43539˚ -122.30961˚ - 0 nm - SEATTLE VORTAC
LMT VOR - 0 ft / 0 m 42.15314˚ -121.72753˚ 318 nm 318 nm 175° / 176° KLAMATH FALLS VORTAC
O RBL VOR - 0 ft / 0 m 40.09892˚ -122.23636˚ 125 nm 443 nm 191° / 190° RED BLUFF VORTAC

Altitude Profile

Advertisement - Login to hide

Weather


0- 5 10 15 20 25 30 35+ Temperature / ° C

Clouds and Precipitation
Forecast for 2018-05-27 18:00 UTC. Updated 3 hours ago

Ground ~20,000 ft ~40,000 ft Winds

KSEA

Details ICAO KSEA (SEA)
Name Seattle Tacoma Intl
Region United States
Timezone America/Los_Angeles (UTC-7.0)
Stats Elevation 433 ft / 132 m (AMSL)
Location 47.450188° -122.312320°
Runways 3
Magnetic Variation 15.621° E

METAR

KSEA 271853Z 26007KT 10SM BKN220 18/09 A3024 RMK AO2 SLP245 T01830089

Decode

TAF

KSEA 271735Z 2718/2824 28005KT P6SM SCT200 FM272200 32005KT P6SM SCT200 FM280300 33006KT P6SM SCT040 FM281000 16005KT P6SM BKN020 OVC030 FM281400 20003KT P6SM SCT010 BKN015 OVC020 TEMPO 2815/2818 5SM -DZ BR SCT007 BKN010 OVC015 FM281900 27004KT P6SM SCT018 BKN030 FM282200 30005KT P6SM SCT025 BKN035

Decode

Departure Runways

ID Width Length Bearing (true) Bearing (mag) Surface Threshold Offset Overrun Length
16C 151 ft / 46 m 9,429 ft / 2,874 m 180.34° 164.72° Concrete 0 ft / 0 m 223 ft / 68 m
16L 151 ft / 46 m 11,904 ft / 3,628 m 180.34° 164.72° Concrete 0 ft / 0 m 151 ft / 46 m
16R 151 ft / 46 m 8,503 ft / 2,592 m 180.34° 164.72° Concrete 0 ft / 0 m 164 ft / 50 m
34C 151 ft / 46 m 9,429 ft / 2,874 m 0.34° 344.72° Concrete 0 ft / 0 m 394 ft / 120 m
34L 151 ft / 46 m 8,503 ft / 2,592 m 0.34° 344.72° Concrete 0 ft / 0 m 394 ft / 120 m
34R 151 ft / 46 m 11,904 ft / 3,628 m 0.34° 344.72° Concrete 0 ft / 0 m 400 ft / 122 m

KRBL

Details ICAO KRBL
Name Red Bluff Muni
Region United States
Timezone America/Los_Angeles (UTC-7.0)
Stats Elevation 349 ft / 106 m (AMSL)
Location 40.150679° -122.252298°
Runways 1
Magnetic Variation 13.953° E

METAR

KRBL 271854Z AUTO 35016G24KT 10SM CLR 28/07 A2995 RMK AO2 SLP138 T02780067 $

Decode

TAF

TAF KRBL 271732Z 2718/2818 35012G20KT P6SM FEW250 FM280200 34007KT P6SM SKC FM281600 35014G20KT P6SM SKC

Decode

Destination Runways

ID Width Length Bearing (true) Bearing (mag) Surface Threshold Offset Overrun Length
15 100 ft / 30 m 5,710 ft / 1,740 m 168.15° 154.20° Asphalt 0 ft / 0 m 0 ft / 0 m
33 100 ft / 30 m 5,710 ft / 1,740 m 348.15° 334.20° Asphalt 0 ft / 0 m 0 ft / 0 m